Data for 12/29/2008

Time Sea-Level Adjusted Pressure Absolute Pressure Temperature Relative Humidity Dew Point   
(mb) (inHg) (mb) (inHg) (C) (F) (%) (C) (F)
00:05 1017 30.03 846 24.98 2 35.6 68 -3.3 26.1
00:10 1017 30.03 846 24.98 1.9 35.4 69 -3.2 26.2
00:15 1017 30.03 846 24.98 1.7 35.1 70 -3.2 26.2
00:20 1017 30.03 846 24.98 2 35.5 68 -3.3 26.1
00:25 1017 30.03 846 24.98 2.2 35.9 68 -3 26.5
00:30 1017 30.03 846 24.98 2.2 35.9 69 -3 26.6
00:35 1017 30.03 846 24.98 2.1 35.9 69 -2.9 26.7
00:40 1017 30.03 846 24.98 2.1 35.8 70 -2.9 26.8
00:45 1017 30.03 846 24.98 2 35.5 70 -2.9 26.7
00:50 1017 30.03 846 24.98 1.4 34.6 71 -3.3 26
00:55 1017 30.03 846 24.98 1.3 34.4 71 -3.4 25.9
01:00 1017 30.03 846 24.98 1.3 34.4 72 -3.2 26.3
01:05 1017 30.03 846 24.98 1.3 34.4 71 -3.3 26.1
01:10 1017 30.03 846 24.98 1.4 34.4 72 -3.2 26.2
01:15 1017 30.03 846 24.98 1.5 34.7 72 -3 26.6
01:20 1017 30.03 846 24.98 1.5 34.7 71 -3.2 26.2
01:25 1017 30.03 846 24.98 1.2 34.1 72 -3.3 26
01:30 1017 30.03 846 24.98 1 33.8 72 -3.4 25.8
01:35 1017 30.03 846 24.98 1 33.8 72 -3.6 25.6
01:40 1017 30.03 846 24.98 1 33.8 73 -3.4 25.9
01:45 1017 30.03 846 24.98 1.2 34.1 71 -3.6 25.5
01:50 1017 30.03 846 24.98 1 33.7 74 -3.3 26.1
01:55 1017 30.03 846 24.98 1.2 34.2 70 -3.7 25.4
02:00 1017 30.03 846 24.98 0.7 33.3 73 -3.6 25.5
02:05 1017 30.03 846 24.98 0.4 32.7 74 -3.6 25.4
02:10 1017 30.03 846 24.98 0.5 32.9 72 -4 24.9
02:15 1017 30.03 846 24.98 0.2 32.4 74 -3.8 25.2
02:20 1017 30.03 846 24.98 0 32.1 75 -4 24.9
02:25 1017 30.03 846 24.98 -0 31.9 74 -4.1 24.6
02:30 1017 30.03 846 24.98 -0.3 31.4 75 -4.2 24.5
02:35 1017 30.03 846 24.98 -0.1 31.9 74 -4.2 24.4
02:40 1017 30.03 846 24.98 -0 31.9 76 -3.7 25.3
02:45 1017 30.03 846 24.98 -0.2 31.7 74 -4.3 24.3
02:50 1017 30.03 846 24.98 -0.3 31.5 76 -4.1 24.6
02:55 1017 30.03 846 24.98 -0.3 31.5 73 -4.5 23.8
03:00 1017 30.03 846 24.98 -0.3 31.5 73 -4.6 23.6
03:05 1017 30.03 846 24.98 -0.2 31.6 72 -4.7 23.6
03:10 1017 30.03 846 24.98 -0.5 31 73 -4.8 23.3
03:15 1017 30.03 846 24.98 -0.7 30.8 74 -4.8 23.4
03:20 1017 30.03 846 24.98 -0.7 30.7 74 -4.8 23.4
03:25 1017 30.03 846 24.98 -0.8 30.5 74 -4.9 23.1
03:30 1017 30.03 846 24.98 -1 30.3 74 -5 22.9
03:35 1017 30.03 846 24.98 -1.2 29.8 75 -5 22.9
03:40 1017 30.03 846 24.98 -1.6 29 79 -4.9 23.2
03:45 1016 30 846 24.98 -1.2 29.8 76 -5 23.1
03:50 1016 30 846 24.98 -1.4 29.5 80 -4.5 23.9
03:55 1016 30 846 24.98 -1.2 29.9 77 -4.6 23.6
04:00 1016 30 845 24.95 -1.5 29.3 80 -4.6 23.7
04:05 1016 30 845 24.95 -1.1 30.1 78 -4.5 23.9
04:10 1016 30 845 24.95 -1.2 29.9 77 -4.7 23.5
04:15 1016 30 845 24.95 -1.1 30.1 76 -4.8 23.3
04:20 1016 30 846 24.98 -1.1 30.1 77 -4.6 23.7
04:25 1016 30 846 24.98 -1 30.2 77 -4.6 23.7
04:30 1016 30 846 24.98 -0.7 30.8 75 -4.5 23.9
04:35 1016 30 845 24.95 -0.6 31 75 -4.4 24
04:40 1016 30 845 24.95 -0.6 30.9 75 -4.5 23.8
04:45 1016 30 845 24.95 -0.4 31.3 74 -4.4 24
04:50 1016 30 845 24.95 -0.2 31.6 74 -4.4 24.1
04:55 1016 30 845 24.95 -0.2 31.7 73 -4.5 23.9
05:00 1016 30 845 24.95 -0.2 31.7 72 -4.6 23.8
05:05 1016 30 845 24.95 -0.3 31.4 72 -4.7 23.5
05:10 1016 30 845 24.95 -0.3 31.4 72 -4.8 23.4
05:15 1015 29.97 845 24.95 -0.2 31.7 71 -4.8 23.4
05:20 1015 29.97 845 24.95 -0 32 71 -4.7 23.6
05:25 1015 29.97 845 24.95 0.1 32.2 70 -4.7 23.6
05:30 1016 30 845 24.95 0.3 32.5 69 -4.8 23.4
05:35 1016 30 845 24.95 0.5 32.9 68 -4.7 23.5
05:40 1015 29.97 845 24.95 0.7 33.2 67 -4.9 23.3
05:45 1015 29.97 845 24.95 0.7 33.3 67 -4.6 23.6
05:50 1015 29.97 845 24.95 0.3 32.6 70 -4.5 23.8
05:55 1015 29.97 844 24.92 -0 32 69 -4.9 23.1
06:00 1015 29.97 844 24.92 -0.3 31.4 70 -5.2 22.6
06:05 1015 29.97 844 24.92 -0.8 30.6 72 -5.3 22.5
06:10 1015 29.97 844 24.92 -1 30.1 71 -5.7 21.7
06:15 1015 29.97 844 24.92 -0.9 30.3 70 -5.7 21.8
06:20 1014 29.94 844 24.92 -0.6 30.9 69 -5.7 21.7
06:25 1014 29.94 844 24.92 0.6 33.1 64 -5.5 22.1
06:30 1014 29.94 844 24.92 1.2 34.2 62 -5.2 22.7
06:35 1014 29.94 844 24.92 1.2 34.2 63 -5 23
06:40 1014 29.94 844 24.92 1.1 34 64 -4.9 23.2
06:45 1014 29.94 844 24.92 1 33.8 64 -4.9 23.1
06:50 1014 29.94 844 24.92 0.9 33.6 65 -4.9 23.2
06:55 1014 29.94 844 24.92 0.4 32.7 67 -5 23
07:00 1014 29.94 844 24.92 0.3 32.5 68 -5 22.9
07:05 1014 29.94 844 24.92 0.7 33.2 65 -5.2 22.7
07:10 1014 29.94 844 24.92 0.7 33.2 66 -5 23
07:15 1014 29.94 843 24.89 0.4 32.7 66 -5.1 22.7
07:20 1014 29.94 843 24.89 0.3 32.5 67 -5.1 22.8
07:25 1014 29.94 843 24.89 0.2 32.4 66 -5.3 22.4
07:30 1014 29.94 843 24.89 0.4 32.7 66 -5.2 22.6
07:35 1014 29.94 843 24.89 0.4 32.7 67 -5 23.1
07:40 1014 29.94 843 24.89 0.2 32.4 68 -4.9 23.2
07:45 1014 29.94 843 24.89 0.1 32.2 69 -5 23.1
07:50 1014 29.94 843 24.89 -0.2 31.6 69 -5.3 22.5
07:55 1014 29.94 843 24.89 -0.2 31.6 68 -5.5 22.2
08:00 1014 29.94 843 24.89 0.2 32.4 66 -5.4 22.2
08:05 1013 29.91 843 24.89 0.4 32.6 69 -4.6 23.7
08:10 1013 29.91 843 24.89 -0.1 31.9 69 -5 22.9
08:15 1013 29.91 843 24.89 0.1 32.2 69 -5 23.1
08:20 1013 29.91 843 24.89 0.2 32.3 69 -4.8 23.4
08:25 1013 29.91 843 24.89 0.2 32.3 69 -4.9 23.1
08:30 1013 29.91 842 24.86 0.1 32.2 68 -5 22.9
08:35 1013 29.91 842 24.86 0.1 32.3 67 -5.3 22.5
08:40 1013 29.91 842 24.86 0.4 32.8 65 -5.4 22.4
08:45 1013 29.91 842 24.86 0.6 33 65 -5.2 22.7
08:50 1013 29.91 842 24.86 0.4 32.8 66 -5.1 22.8
08:55 1013 29.91 842 24.86 0.3 32.5 67 -5.1 22.9
09:00 1013 29.91 842 24.86 0.4 32.7 66 -5.3 22.5
09:05 1012 29.88 842 24.86 0.5 32.9 64 -5.4 22.2
09:10 1012 29.88 841 24.83 0.7 33.3 64 -5.3 22.4
09:15 1012 29.88 841 24.83 0.9 33.7 63 -5.3 22.4
09:20 1012 29.88 841 24.83 1 33.8 65 -5 23.1
09:25 1012 29.88 841 24.83 1 33.8 64 -5.1 22.8
09:30 1012 29.88 841 24.83 1.2 34.1 63 -5 23
09:35 1012 29.88 841 24.83 1.4 34.5 62 -5.1 22.8
09:40 1012 29.88 841 24.83 1.7 35 63 -4.7 23.5
09:45 1012 29.88 841 24.83 1.8 35.2 63 -4.4 24
09:50 1012 29.88 841 24.83 2 35.5 65 -3.9 24.9
09:55 1012 29.88 841 24.83 2.2 36 67 -3.2 26.2
10:00 1012 29.88 841 24.83 2.4 36.4 68 -2.9 26.8
10:05 1011 29.85 841 24.83 2.7 36.9 67 -2.8 26.9
10:10 1011 29.85 841 24.83 3 37.4 66 -2.7 27.1
10:15 1011 29.85 841 24.83 3.1 37.6 64 -3 26.6
10:20 1011 29.85 841 24.83 3.5 38.2 64 -2.6 27.3
10:25 1011 29.85 841 24.83 3.5 38.4 64 -2.7 27.2
10:30 1011 29.85 841 24.83 3.7 38.7 62 -2.8 27
10:35 1011 29.85 841 24.83 3.9 39.1 62 -2.8 27
10:40 1011 29.85 841 24.83 4 39.2 61 -2.7 27.1
10:45 1011 29.85 840 24.81 4 39.3 62 -2.6 27.3
10:50 1011 29.85 841 24.83 4.1 39.4 62 -2.5 27.4
10:55 1011 29.85 841 24.83 4.1 39.5 62 -2.5 27.4
11:00 1011 29.85 840 24.81 3.7 38.7 63 -2.6 27.3
11:05 1011 29.85 840 24.81 3.2 37.7 66 -2.6 27.3
11:10 1011 29.85 840 24.81 3.2 37.7 65 -2.8 27
11:15 1011 29.85 840 24.81 3.3 37.9 65 -2.7 27.2
11:20 1011 29.85 840 24.81 3.4 38.1 65 -2.6 27.3
11:25 1011 29.85 840 24.81 3.4 38.1 65 -2.5 27.4
11:30 1010 29.83 840 24.81 3.5 38.3 64 -2.5 27.4
11:35 1010 29.83 839 24.78 3.8 38.8 63 -2.7 27.2
11:40 1010 29.83 839 24.78 4.1 39.4 61 -2.8 26.9
11:45 1010 29.83 839 24.78 4.6 40.2 58 -2.9 26.8
11:50 1010 29.83 839 24.78 4.6 40.2 61 -2.4 27.7
11:55 1010 29.83 839 24.78 4.5 40.1 60 -2.6 27.2
12:00 1010 29.83 839 24.78 4.6 40.4 60 -2.4 27.7
12:05 1009 29.8 839 24.78 4.4 39.9 62 -2.2 28.1
12:10 1009 29.8 839 24.78 4 39.3 65 -1.9 28.5
12:15 1009 29.8 838 24.75 3.7 38.7 65 -2.2 28.1
12:20 1009 29.8 838 24.75 3.7 38.6 66 -2.2 28.1
12:25 1009 29.8 838 24.75 3.6 38.5 65 -2.2 28
12:30 1009 29.8 838 24.75 3.8 38.8 65 -2.2 28.1
12:35 1009 29.8 838 24.75 3.6 38.5 67 -1.9 28.6
12:40 1009 29.8 838 24.75 3.6 38.4 66 -2.3 27.9
12:45 1009 29.8 838 24.75 3.9 39 62 -2.7 27.2
12:50 1009 29.8 838 24.75 4.6 40.3 60 -2.4 27.6
12:55 1009 29.8 838 24.75 5.1 41.1 60 -2.1 28.2
13:00 1009 29.8 838 24.75 5.2 41.3 59 -2.1 28.1
13:05 1008 29.77 838 24.75 5.4 41.7 59 -2 28.4
13:10 1008 29.77 838 24.75 6.4 43.6 54 -2.1 28.2
13:15 1008 29.77 838 24.75 6.6 44 52 -2.4 27.7
13:20 1008 29.77 837 24.72 7.5 45.5 52 -1.8 28.7
13:25 1008 29.77 837 24.72 6.4 43.4 55 -2 28.4
13:30 1008 29.77 837 24.72 6.5 43.8 53 -2.3 27.9
13:35 1008 29.77 837 24.72 6.7 44.1 53 -2.1 28.2
13:40 1008 29.77 837 24.72 7.1 44.7 50 -2.7 27.2
13:45 1007 29.74 837 24.72 8.3 46.9 44 -3.3 26
13:50 1007 29.74 836 24.69 8.4 47 45 -2.9 26.7
13:55 1007 29.74 836 24.69 8.3 46.9 46 -2.5 27.4
14:00 1007 29.74 836 24.69 7.8 46 49 -2.3 27.8
14:05 1007 29.74 836 24.69 8.2 46.8 44 -3.4 25.9
14:10 1006 29.71 836 24.69 8.4 47.1 43 -3.3 26.1
14:15 1006 29.71 836 24.69 8.5 47.2 42 -3.8 25.2
14:20 1006 29.71 835 24.66 8.7 47.6 42 -3.6 25.5
14:25 1006 29.71 835 24.66 8.9 47.9 40 -4.1 24.7
14:30 1006 29.71 835 24.66 8.8 47.9 40 -3.9 25
14:35 1006 29.71 835 24.66 8.6 47.4 43 -3.3 26
14:40 1006 29.71 835 24.66 8.1 46.7 44 -3.3 26
14:45 1006 29.71 835 24.66 8 46.3 44 -3.5 25.6
14:50 1006 29.71 835 24.66 7.7 45.8 46 -3 26.5
14:55 1006 29.71 835 24.66 7.5 45.5 46 -3.3 26
15:00 1006 29.71 835 24.66 7.5 45.5 47 -3.1 26.5
15:05 1006 29.71 835 24.66 7.2 45 45 -3.8 25.1
15:10 1006 29.71 835 24.66 7.7 45.9 46 -3.1 26.3
15:15 1006 29.71 835 24.66 7.7 45.8 46 -3.3 26.1
15:20 1006 29.71 835 24.66 7.4 45.4 47 -3 26.6
15:25 1006 29.71 835 24.66 7.2 45 47 -3.3 26.1
15:30 1006 29.71 835 24.66 7.4 45.4 47 -3.3 26.1
15:35 1005 29.68 835 24.66 7.3 45.1 48 -3.1 26.5
15:40 1006 29.71 835 24.66 7.5 45.6 45 -3.6 25.6
15:45 1006 29.71 835 24.66 7.5 45.6 45 -3.6 25.5
15:50 1006 29.71 835 24.66 7.4 45.4 47 -3.2 26.2
15:55 1005 29.68 835 24.66 7.4 45.4 45 -3.7 25.3
16:00 1005 29.68 835 24.66 7.8 46 44 -3.7 25.4
16:05 1005 29.68 834 24.63 8 46.4 41 -4.6 23.8
16:10 1005 29.68 834 24.63 8.2 46.8 41 -4.3 24.3
16:15 1005 29.68 834 24.63 8.1 46.6 41 -4.4 24
16:20 1005 29.68 834 24.63 8.2 46.8 40 -4.7 23.6
16:25 1005 29.68 834 24.63 8.2 46.7 39 -4.9 23.2
16:30 1004 29.65 834 24.63 8 46.5 40 -4.6 23.6
16:35 1004 29.65 833 24.6 7.6 45.7 42 -4.6 23.7
16:40 1004 29.65 833 24.6 7.6 45.7 40 -5 23
16:45 1004 29.65 833 24.6 7.6 45.6 40 -5.2 22.6
16:50 1004 29.65 833 24.6 8 46.4 38 -5.5 22.1
16:55 1004 29.65 833 24.6 8 46.5 37 -5.9 21.3
17:00 1004 29.65 833 24.6 8.5 47.3 36 -5.9 21.4
17:05 1004 29.65 833 24.6 8.4 47.1 35 -6 21.2
17:10 1003 29.62 833 24.6 8.1 46.5 38 -5.5 22
17:15 1003 29.62 833 24.6 7.9 46.1 36 -6.4 20.5
17:20 1003 29.62 833 24.6 8.3 47 35 -6.3 20.7
17:25 1003 29.62 833 24.6 8.2 46.7 35 -6.5 20.3
17:30 1003 29.62 833 24.6 8.3 47 34 -6.5 20.3
17:35 1004 29.65 833 24.6 8.1 46.5 37 -5.8 21.6
17:40 1003 29.62 832 24.57 8.3 47 32 -7.2 19
17:45 1003 29.62 832 24.57 8.5 47.4 33 -6.7 19.9
17:50 1003 29.62 832 24.57 8.3 46.9 32 -7.4 18.7
17:55 1003 29.62 832 24.57 8.5 47.3 32 -7.3 18.9
18:00 1003 29.62 832 24.57 8.5 47.4 32 -7.4 18.8
18:05 1003 29.62 832 24.57 8.5 47.3 34 -6.4 20.5
18:10 1003 29.62 832 24.57 8.1 46.5 39 -5.2 22.7
18:15 1003 29.62 833 24.6 7.7 45.8 41 -4.9 23.3
18:20 1003 29.62 833 24.6 7.3 45.2 42 -4.7 23.5
18:25 1003 29.62 832 24.57 7.4 45.3 35 -7.1 19.1
18:30 1003 29.62 832 24.57 7.7 45.9 38 -5.7 21.8
18:35 1003 29.62 832 24.57 7.6 45.7 37 -6 21.3
18:40 1003 29.62 832 24.57 7.6 45.7 38 -6 21.3
18:45 1003 29.62 832 24.57 7.6 45.8 37 -6.3 20.7
18:50 1003 29.62 832 24.57 7.7 45.9 35 -6.6 20
18:55 1003 29.62 832 24.57 7.8 46 37 -5.9 21.3
19:00 1003 29.62 832 24.57 7.6 45.7 38 -6 21.2
19:05 1004 29.65 833 24.6 7.5 45.4 39 -5.7 21.8
19:10 1005 29.68 834 24.63 7.4 45.2 43 -4.3 24.3
19:15 1006 29.71 835 24.66 4.4 39.9 74 0.1 32.2
19:20 1006 29.71 835 24.66 1.4 34.6 86 -0.7 30.7
19:25 1007 29.74 836 24.69 0.1 32.1 94 -0.8 30.6
19:30 1007 29.74 836 24.69 -0.5 31 96 -1.1 30
19:35 1007 29.74 836 24.69 -0.8 30.5 97 -1.3 29.7
19:40 1007 29.74 837 24.72 -1.1 30.1 97 -1.5 29.2
19:45 1008 29.77 837 24.72 -1.3 29.7 98 -1.6 29.1
19:50 1008 29.77 837 24.72 -1.3 29.7 98 -1.6 29.1
19:55 1008 29.77 837 24.72 -1.4 29.5 98 -1.7 29
20:00 1009 29.8 838 24.75 -1.4 29.4 98 -1.7 29
20:05 1009 29.8 838 24.75 -1.5 29.4 98 -1.7 28.9
20:10 1009 29.8 838 24.75 -1.5 29.4 98 -1.7 29
20:15 1009 29.8 838 24.75 -1.5 29.4 98 -1.7 28.9
20:20 1009 29.8 838 24.75 -1.6 29.1 98 -1.9 28.6
20:25 1009 29.8 839 24.78 -1.7 28.9 98 -2 28.5
20:30 1010 29.83 839 24.78 -1.7 28.9 98 -2 28.4
20:35 1010 29.83 839 24.78 -1.7 29 98 -1.9 28.5
20:40 1009 29.8 839 24.78 -1.7 29 98 -2 28.5
20:45 1010 29.83 839 24.78 -1.7 28.9 98 -2 28.3
20:50 1010 29.83 839 24.78 -1.7 28.9 98 -2 28.4
20:55 1010 29.83 839 24.78 -1.7 28.9 98 -2 28.3
21:00 1010 29.83 839 24.78 -1.8 28.8 98 -2.1 28.2
21:05 1010 29.83 839 24.78 -1.8 28.7 97 -2.2 28
21:10 1010 29.83 839 24.78 -1.8 28.8 97 -2.3 27.9
21:15 1010 29.83 839 24.78 -1.8 28.8 96 -2.3 27.8
21:20 1010 29.83 839 24.78 -1.7 28.9 95 -2.3 27.8
21:25 1010 29.83 840 24.81 -1.6 29.1 92 -2.7 27.1
21:30 1011 29.85 840 24.81 -1.7 28.9 91 -3 26.6
21:35 1011 29.85 840 24.81 -1.7 29 91 -3 26.6
21:40 1011 29.85 840 24.81 -1.5 29.2 88 -3.3 26.1
21:45 1011 29.85 840 24.81 -1.4 29.5 78 -4.8 23.3
21:50 1011 29.85 840 24.81 -1.3 29.6 76 -5.1 22.9
21:55 1011 29.85 840 24.81 -1.3 29.7 71 -6 21.3
22:00 1011 29.85 840 24.81 -1.3 29.6 70 -6 21.1
22:05 1011 29.85 840 24.81 -1.5 29.3 70 -6.3 20.7
22:10 1011 29.85 840 24.81 -1.5 29.2 68 -6.7 20
22:15 1011 29.85 840 24.81 -1.5 29.3 67 -6.9 19.6
22:20 1011 29.85 840 24.81 -1.5 29.2 69 -6.5 20.2
22:25 1011 29.85 841 24.83 -1.6 29 68 -6.8 19.7
22:30 1011 29.85 841 24.83 -1.7 28.9 68 -6.8 19.7
22:35 1012 29.88 841 24.83 -1.7 28.9 66 -7.3 18.8
22:40 1012 29.88 841 24.83 -1.8 28.7 65 -7.5 18.5
22:45 1012 29.88 841 24.83 -1.8 28.8 64 -7.7 18.1
22:50 1012 29.88 841 24.83 -1.8 28.7 65 -7.6 18.3
22:55 1012 29.88 841 24.83 -1.9 28.6 64 -7.8 17.9
23:00 1012 29.88 841 24.83 -1.9 28.6 63 -8.1 17.5
23:05 1012 29.88 842 24.86 -1.9 28.6 63 -8.1 17.4
23:10 1012 29.88 842 24.86 -1.9 28.5 61 -8.4 16.9
23:15 1013 29.91 842 24.86 -1.9 28.6 61 -8.5 16.7
23:20 1013 29.91 842 24.86 -1.9 28.5 62 -8.3 17
23:25 1013 29.91 842 24.86 -1.9 28.5 61 -8.5 16.7
23:30 1013 29.91 842 24.86 -2.1 28.3 63 -8.2 17.2
23:35 1013 29.91 842 24.86 -2.4 27.6 64 -8.3 17.1
23:40 1013 29.91 842 24.86 -2.6 27.4 65 -8.2 17.2
23:45 1013 29.91 842 24.86 -2.7 27.1 67 -8.1 17.5
23:50 1013 29.91 842 24.86 -2.8 26.9 64 -8.7 16.4
23:55 1013 29.91 842 24.86 -2.7 27.2 62 -9 15.8
24:00 1013 29.91 843 24.89 -2.5 27.5 60 -9.3 15.2